<?xml version="1.0" encoding="UTF-8" standalone="no" ?>
<gpx xmlns="http://www.topografix.com/GPX/1/1" xmlns:xsi="http://www.w3.org/2001/XMLSchema-instance" xsi:schemaLocation="http://www.topografix.com/GPX/1/1 http://www.topografix.com/GPX/1/1/gpx.xsd" version="1.1" creator="VisuGPX - https://www.visugpx.com">
  <metadata>
    <name>Balade autour de Hornbach</name>
    <desc><![CDATA[Parking au centre de Hornbach, Burgstrasse. Montée par Neuer Weg vers Scheidwald. Après avoir traversé la L424, longer la frontière, voir les bornes. Après avoir traversé la Schwalb, se diriger vers Becherbach Weiher. Montée sur Kahlenberg, Schadenrech. Passage près de la Gimpelwad Hütte et descente vers la vallée de la Schwalb. Montée vers le parking à proximité du Rathaus. Repas de midi au «  Weihnachtsmarkt  im Kloster  Hornbach » . Photos :  https://photos.app.goo.gl/iaDReFmpUbuV4BD17]]></desc>
  </metadata>
  <trk>
    <name><![CDATA[Balade autour de Hornbach on GPSies.com]]></name>
    <trkseg>
      <trkpt lat="49.18625" lon="7.36907">
        <ele>246</ele>
        <time>2010-01-01T00:00:00Z</time>
      </trkpt>
      <trkpt lat="49.18508" lon="7.37106">
        <ele>258</ele>
        <time>2010-01-01T00:01:10Z</time>
      </trkpt>
      <trkpt lat="49.1847" lon="7.37059">
        <ele>259</ele>
        <time>2010-01-01T00:01:29Z</time>
      </trkpt>
      <trkpt lat="49.18429" lon="7.37047">
        <ele>261</ele>
        <time>2010-01-01T00:01:46Z</time>
      </trkpt>
      <trkpt lat="49.18399" lon="7.37164">
        <ele>269</ele>
        <time>2010-01-01T00:02:19Z</time>
      </trkpt>
      <trkpt lat="49.18389" lon="7.37294">
        <ele>273</ele>
        <time>2010-01-01T00:02:53Z</time>
      </trkpt>
      <trkpt lat="49.18366" lon="7.37396">
        <ele>274</ele>
        <time>2010-01-01T00:03:21Z</time>
      </trkpt>
      <trkpt lat="49.1833" lon="7.37452">
        <ele>279</ele>
        <time>2010-01-01T00:03:42Z</time>
      </trkpt>
      <trkpt lat="49.18167" lon="7.37592">
        <ele>293</ele>
        <time>2010-01-01T00:04:57Z</time>
      </trkpt>
      <trkpt lat="49.18109" lon="7.37685">
        <ele>296</ele>
        <time>2010-01-01T00:05:30Z</time>
      </trkpt>
      <trkpt lat="49.18027" lon="7.37757">
        <ele>302</ele>
        <time>2010-01-01T00:06:08Z</time>
      </trkpt>
      <trkpt lat="49.17943" lon="7.37774">
        <ele>307</ele>
        <time>2010-01-01T00:06:42Z</time>
      </trkpt>
      <trkpt lat="49.17827" lon="7.37864">
        <ele>310</ele>
        <time>2010-01-01T00:07:34Z</time>
      </trkpt>
      <trkpt lat="49.17797" lon="7.37895">
        <ele>311</ele>
        <time>2010-01-01T00:07:48Z</time>
      </trkpt>
      <trkpt lat="49.17672" lon="7.37915">
        <ele>316</ele>
        <time>2010-01-01T00:08:39Z</time>
      </trkpt>
      <trkpt lat="49.17665" lon="7.37907">
        <ele>316</ele>
        <time>2010-01-01T00:08:42Z</time>
      </trkpt>
      <trkpt lat="49.17606" lon="7.38006">
        <ele>320</ele>
        <time>2010-01-01T00:09:17Z</time>
      </trkpt>
      <trkpt lat="49.17509" lon="7.38137">
        <ele>331</ele>
        <time>2010-01-01T00:10:09Z</time>
      </trkpt>
      <trkpt lat="49.17486" lon="7.37945">
        <ele>328</ele>
        <time>2010-01-01T00:11:00Z</time>
      </trkpt>
      <trkpt lat="49.17353" lon="7.37727">
        <ele>327</ele>
        <time>2010-01-01T00:12:19Z</time>
      </trkpt>
      <trkpt lat="49.17308" lon="7.3757">
        <ele>320</ele>
        <time>2010-01-01T00:13:03Z</time>
      </trkpt>
      <trkpt lat="49.17318" lon="7.37014">
        <ele>286</ele>
        <time>2010-01-01T00:15:29Z</time>
      </trkpt>
      <trkpt lat="49.17293" lon="7.36926">
        <ele>282</ele>
        <time>2010-01-01T00:15:54Z</time>
      </trkpt>
      <trkpt lat="49.17289" lon="7.36824">
        <ele>276</ele>
        <time>2010-01-01T00:16:21Z</time>
      </trkpt>
      <trkpt lat="49.17246" lon="7.36637">
        <ele>260</ele>
        <time>2010-01-01T00:17:13Z</time>
      </trkpt>
      <trkpt lat="49.17241" lon="7.36556">
        <ele>250</ele>
        <time>2010-01-01T00:17:34Z</time>
      </trkpt>
      <trkpt lat="49.17221" lon="7.36556">
        <ele>250</ele>
        <time>2010-01-01T00:17:42Z</time>
      </trkpt>
      <trkpt lat="49.17202" lon="7.36488">
        <ele>240</ele>
        <time>2010-01-01T00:18:02Z</time>
      </trkpt>
      <trkpt lat="49.17186" lon="7.36379">
        <ele>241</ele>
        <time>2010-01-01T00:18:31Z</time>
      </trkpt>
      <trkpt lat="49.17184" lon="7.36295">
        <ele>250</ele>
        <time>2010-01-01T00:18:53Z</time>
      </trkpt>
      <trkpt lat="49.17195" lon="7.36278">
        <ele>255</ele>
        <time>2010-01-01T00:18:59Z</time>
      </trkpt>
      <trkpt lat="49.17167" lon="7.36263">
        <ele>251</ele>
        <time>2010-01-01T00:19:11Z</time>
      </trkpt>
      <trkpt lat="49.17238" lon="7.35965">
        <ele>291</ele>
        <time>2010-01-01T00:20:34Z</time>
      </trkpt>
      <trkpt lat="49.17298" lon="7.35888">
        <ele>293</ele>
        <time>2010-01-01T00:21:06Z</time>
      </trkpt>
      <trkpt lat="49.17346" lon="7.35782">
        <ele>292</ele>
        <time>2010-01-01T00:21:39Z</time>
      </trkpt>
      <trkpt lat="49.17292" lon="7.35705">
        <ele>295</ele>
        <time>2010-01-01T00:22:09Z</time>
      </trkpt>
      <trkpt lat="49.17224" lon="7.35558">
        <ele>296</ele>
        <time>2010-01-01T00:22:56Z</time>
      </trkpt>
      <trkpt lat="49.17177" lon="7.35354">
        <ele>291</ele>
        <time>2010-01-01T00:23:52Z</time>
      </trkpt>
      <trkpt lat="49.17165" lon="7.35279">
        <ele>289</ele>
        <time>2010-01-01T00:24:13Z</time>
      </trkpt>
      <trkpt lat="49.17193" lon="7.34871">
        <ele>283</ele>
        <time>2010-01-01T00:26:00Z</time>
      </trkpt>
      <trkpt lat="49.17151" lon="7.34865">
        <ele>279</ele>
        <time>2010-01-01T00:26:17Z</time>
      </trkpt>
      <trkpt lat="49.16963" lon="7.35298">
        <ele>267</ele>
        <time>2010-01-01T00:28:33Z</time>
      </trkpt>
      <trkpt lat="49.16956" lon="7.3537">
        <ele>265</ele>
        <time>2010-01-01T00:28:52Z</time>
      </trkpt>
      <trkpt lat="49.16973" lon="7.35583">
        <ele>269</ele>
        <time>2010-01-01T00:29:48Z</time>
      </trkpt>
      <trkpt lat="49.16941" lon="7.35595">
        <ele>269</ele>
        <time>2010-01-01T00:30:01Z</time>
      </trkpt>
      <trkpt lat="49.16918" lon="7.35538">
        <ele>275</ele>
        <time>2010-01-01T00:30:19Z</time>
      </trkpt>
      <trkpt lat="49.16836" lon="7.35448">
        <ele>277</ele>
        <time>2010-01-01T00:30:59Z</time>
      </trkpt>
      <trkpt lat="49.16855" lon="7.35408">
        <ele>272</ele>
        <time>2010-01-01T00:31:12Z</time>
      </trkpt>
      <trkpt lat="49.1689" lon="7.35411">
        <ele>264</ele>
        <time>2010-01-01T00:31:26Z</time>
      </trkpt>
      <trkpt lat="49.1689" lon="7.35386">
        <ele>265</ele>
        <time>2010-01-01T00:31:33Z</time>
      </trkpt>
      <trkpt lat="49.16891" lon="7.35385">
        <ele>265</ele>
        <time>2010-01-01T00:31:33Z</time>
      </trkpt>
      <trkpt lat="49.16919" lon="7.35295">
        <ele>267</ele>
        <time>2010-01-01T00:32:00Z</time>
      </trkpt>
      <trkpt lat="49.16906" lon="7.35228">
        <ele>271</ele>
        <time>2010-01-01T00:32:18Z</time>
      </trkpt>
      <trkpt lat="49.16844" lon="7.35114">
        <ele>284</ele>
        <time>2010-01-01T00:32:57Z</time>
      </trkpt>
      <trkpt lat="49.16772" lon="7.35054">
        <ele>286</ele>
        <time>2010-01-01T00:33:29Z</time>
      </trkpt>
      <trkpt lat="49.16646" lon="7.34838">
        <ele>288</ele>
        <time>2010-01-01T00:34:45Z</time>
      </trkpt>
      <trkpt lat="49.16443" lon="7.34857">
        <ele>327</ele>
        <time>2010-01-01T00:36:07Z</time>
      </trkpt>
      <trkpt lat="49.16432" lon="7.3469">
        <ele>320</ele>
        <time>2010-01-01T00:36:51Z</time>
      </trkpt>
      <trkpt lat="49.16391" lon="7.34498">
        <ele>329</ele>
        <time>2010-01-01T00:37:43Z</time>
      </trkpt>
      <trkpt lat="49.16427" lon="7.34269">
        <ele>327</ele>
        <time>2010-01-01T00:38:45Z</time>
      </trkpt>
      <trkpt lat="49.16362" lon="7.33947">
        <ele>328</ele>
        <time>2010-01-01T00:40:13Z</time>
      </trkpt>
      <trkpt lat="49.16407" lon="7.33917">
        <ele>322</ele>
        <time>2010-01-01T00:40:33Z</time>
      </trkpt>
      <trkpt lat="49.16508" lon="7.33909">
        <ele>319</ele>
        <time>2010-01-01T00:41:13Z</time>
      </trkpt>
      <trkpt lat="49.16654" lon="7.33943">
        <ele>321</ele>
        <time>2010-01-01T00:42:13Z</time>
      </trkpt>
      <trkpt lat="49.16695" lon="7.33776">
        <ele>333</ele>
        <time>2010-01-01T00:42:59Z</time>
      </trkpt>
      <trkpt lat="49.16737" lon="7.33618">
        <ele>331</ele>
        <time>2010-01-01T00:43:44Z</time>
      </trkpt>
      <trkpt lat="49.16886" lon="7.33686">
        <ele>340</ele>
        <time>2010-01-01T00:44:46Z</time>
      </trkpt>
      <trkpt lat="49.1709" lon="7.33719">
        <ele>330</ele>
        <time>2010-01-01T00:46:08Z</time>
      </trkpt>
      <trkpt lat="49.1703" lon="7.33882">
        <ele>327</ele>
        <time>2010-01-01T00:46:57Z</time>
      </trkpt>
      <trkpt lat="49.17029" lon="7.33941">
        <ele>323</ele>
        <time>2010-01-01T00:47:13Z</time>
      </trkpt>
      <trkpt lat="49.17051" lon="7.34038">
        <ele>318</ele>
        <time>2010-01-01T00:47:40Z</time>
      </trkpt>
      <trkpt lat="49.17146" lon="7.34125">
        <ele>318</ele>
        <time>2010-01-01T00:48:24Z</time>
      </trkpt>
      <trkpt lat="49.17249" lon="7.34062">
        <ele>321</ele>
        <time>2010-01-01T00:49:08Z</time>
      </trkpt>
      <trkpt lat="49.17309" lon="7.34227">
        <ele>323</ele>
        <time>2010-01-01T00:49:58Z</time>
      </trkpt>
      <trkpt lat="49.1733" lon="7.34246">
        <ele>323</ele>
        <time>2010-01-01T00:50:08Z</time>
      </trkpt>
      <trkpt lat="49.17398" lon="7.34707">
        <ele>319</ele>
        <time>2010-01-01T00:52:11Z</time>
      </trkpt>
      <trkpt lat="49.17424" lon="7.3482">
        <ele>320</ele>
        <time>2010-01-01T00:52:43Z</time>
      </trkpt>
      <trkpt lat="49.17457" lon="7.34907">
        <ele>320</ele>
        <time>2010-01-01T00:53:09Z</time>
      </trkpt>
      <trkpt lat="49.17516" lon="7.34917">
        <ele>320</ele>
        <time>2010-01-01T00:53:33Z</time>
      </trkpt>
      <trkpt lat="49.17533" lon="7.34921">
        <ele>321</ele>
        <time>2010-01-01T00:53:39Z</time>
      </trkpt>
      <trkpt lat="49.1761" lon="7.3554">
        <ele>316</ele>
        <time>2010-01-01T00:56:24Z</time>
      </trkpt>
      <trkpt lat="49.17704" lon="7.35862">
        <ele>296</ele>
        <time>2010-01-01T00:57:57Z</time>
      </trkpt>
      <trkpt lat="49.17803" lon="7.35961">
        <ele>308</ele>
        <time>2010-01-01T00:58:44Z</time>
      </trkpt>
      <trkpt lat="49.17886" lon="7.36086">
        <ele>302</ele>
        <time>2010-01-01T00:59:31Z</time>
      </trkpt>
      <trkpt lat="49.17886" lon="7.36111">
        <ele>300</ele>
        <time>2010-01-01T00:59:37Z</time>
      </trkpt>
      <trkpt lat="49.1788" lon="7.36125">
        <ele>300</ele>
        <time>2010-01-01T00:59:42Z</time>
      </trkpt>
      <trkpt lat="49.17884" lon="7.36154">
        <ele>299</ele>
        <time>2010-01-01T00:59:49Z</time>
      </trkpt>
      <trkpt lat="49.17939" lon="7.36161">
        <ele>296</ele>
        <time>2010-01-01T01:00:11Z</time>
      </trkpt>
      <trkpt lat="49.17998" lon="7.36218">
        <ele>286</ele>
        <time>2010-01-01T01:00:40Z</time>
      </trkpt>
      <trkpt lat="49.18034" lon="7.3629">
        <ele>266</ele>
        <time>2010-01-01T01:01:03Z</time>
      </trkpt>
      <trkpt lat="49.18055" lon="7.36381">
        <ele>245</ele>
        <time>2010-01-01T01:01:28Z</time>
      </trkpt>
      <trkpt lat="49.1805" lon="7.36424">
        <ele>244</ele>
        <time>2010-01-01T01:01:40Z</time>
      </trkpt>
      <trkpt lat="49.18163" lon="7.36463">
        <ele>242</ele>
        <time>2010-01-01T01:02:27Z</time>
      </trkpt>
      <trkpt lat="49.18167" lon="7.36515">
        <ele>238</ele>
        <time>2010-01-01T01:02:40Z</time>
      </trkpt>
      <trkpt lat="49.18179" lon="7.36531">
        <ele>238</ele>
        <time>2010-01-01T01:02:47Z</time>
      </trkpt>
      <trkpt lat="49.1844" lon="7.36597">
        <ele>241</ele>
        <time>2010-01-01T01:04:33Z</time>
      </trkpt>
      <trkpt lat="49.18459" lon="7.36771">
        <ele>237</ele>
        <time>2010-01-01T01:05:19Z</time>
      </trkpt>
      <trkpt lat="49.18459" lon="7.3683">
        <ele>238</ele>
        <time>2010-01-01T01:05:34Z</time>
      </trkpt>
      <trkpt lat="49.18445" lon="7.3686">
        <ele>240</ele>
        <time>2010-01-01T01:05:44Z</time>
      </trkpt>
      <trkpt lat="49.18467" lon="7.36945">
        <ele>252</ele>
        <time>2010-01-01T01:06:08Z</time>
      </trkpt>
      <trkpt lat="49.18471" lon="7.36968">
        <ele>254</ele>
        <time>2010-01-01T01:06:14Z</time>
      </trkpt>
      <trkpt lat="49.18516" lon="7.37091">
        <ele>258</ele>
        <time>2010-01-01T01:06:51Z</time>
      </trkpt>
      <trkpt lat="49.18614" lon="7.36923">
        <ele>248</ele>
        <time>2010-01-01T01:07:50Z</time>
      </trkpt>
    </trkseg>
  </trk>
</gpx>